Time,TemperatureF,DewpointF,PressureIn,WindDirection,WindDirectionDegrees,WindSpeedMPH,WindSpeedGustMPH,Humidity,HourlyPrecipIn,Conditions,Clouds,dailyrainin,SoftwareType,DateUTC
2013-02-28 00:07:00,34.5,22.5,29.74,North,11,1.0,6.9,61,0.00,,,-99.99,FreeWX 2.04,2013-02-28 05:07:00,
2013-02-28 00:17:00,34.5,22.5,29.74,NNE,24,3.0,6.7,61,0.00,,,-99.99,FreeWX 2.04,2013-02-28 05:17:00,
2013-02-28 00:27:00,34.5,22.5,29.74,NNE,21,2.0,6.3,61,0.00,,,-99.99,FreeWX 2.04,2013-02-28 05:27:00,
2013-02-28 00:37:00,34.5,22.1,29.74,North,5,2.0,6.7,60,0.00,,,-99.99,FreeWX 2.04,2013-02-28 05:37:00,
2013-02-28 00:47:00,34.5,22.1,29.71,ENE,64,1.0,4.5,60,0.00,,,-99.99,FreeWX 2.04,2013-02-28 05:47:00,
2013-02-28 00:57:00,34.5,22.1,29.71,NNE,32,1.0,4.5,60,0.00,,,-99.99,FreeWX 2.04,2013-02-28 05:57:00,
2013-02-28 01:07:00,34.5,22.1,29.71,North,356,1.0,6.7,60,0.00,,,-99.99,FreeWX 2.04,2013-02-28 06:07:00,
2013-02-28 01:18:00,34.5,22.1,29.71,NNE,26,2.0,6.7,60,0.00,,,-99.99,FreeWX 2.04,2013-02-28 06:18:00,
2013-02-28 01:28:00,34.5,22.1,29.71,North,357,2.0,7.4,60,0.00,,,-99.99,FreeWX 2.04,2013-02-28 06:28:00,
2013-02-28 01:38:00,34.5,22.5,29.71,NNE,33,2.0,6.7,61,0.00,,,-99.99,FreeWX 2.04,2013-02-28 06:38:00,
2013-02-28 01:48:00,34.5,22.5,29.71,NNE,32,2.0,7.4,61,0.00,,,-99.99,FreeWX 2.04,2013-02-28 06:48:00,
2013-02-28 01:58:00,34.3,22.3,29.71,NE,36,2.0,6.9,61,0.00,,,-99.99,FreeWX 2.04,2013-02-28 06:58:00,
2013-02-28 02:08:00,34.2,22.1,29.71,ESE,106,1.0,4.5,61,0.00,,,-99.99,FreeWX 2.04,2013-02-28 07:08:00,
2013-02-28 02:18:00,34.2,22.5,29.71,ENE,58,2.0,5.8,62,0.00,,,-99.99,FreeWX 2.04,2013-02-28 07:18:00,
2013-02-28 02:28:00,34.2,22.5,29.71,NE,43,2.0,6.9,62,0.00,,,-99.99,FreeWX 2.04,2013-02-28 07:28:00,
2013-02-28 02:38:00,34.3,22.3,29.71,ENE,68,4.0,8.7,61,0.00,,,-99.99,FreeWX 2.04,2013-02-28 07:38:00,
2013-02-28 02:48:00,34.2,21.7,29.71,East,83,3.0,7.4,60,0.00,,,-99.99,FreeWX 2.04,2013-02-28 07:48:00,
2013-02-28 02:58:00,34.0,21.2,29.71,East,86,3.0,6.7,59,0.00,,,-99.99,FreeWX 2.04,2013-02-28 07:58:00,
2013-02-28 03:08:00,33.8,20.7,29.71,East,83,3.0,7.4,58,0.00,,,-99.99,FreeWX 2.04,2013-02-28 08:08:00,
2013-02-28 03:18:00,33.8,20.1,29.71,East,101,2.0,6.9,57,0.00,,,-99.99,FreeWX 2.04,2013-02-28 08:18:00,
2013-02-28 03:28:00,33.8,20.1,29.71,East,89,2.0,6.9,57,0.00,,,-99.99,FreeWX 2.04,2013-02-28 08:28:00,
2013-02-28 03:38:00,33.6,19.6,29.71,East,94,4.0,8.3,56,0.00,,,-99.99,FreeWX 2.04,2013-02-28 08:38:00,
2013-02-28 03:48:00,33.8,18.9,29.71,ENE,71,4.0,9.6,54,0.00,,,-99.99,FreeWX 2.04,2013-02-28 08:48:00,
2013-02-28 03:58:00,33.6,18.3,29.71,SSE,152,2.0,6.3,53,0.00,,,-99.99,FreeWX 2.04,2013-02-28 08:58:00,
2013-02-28 04:08:00,33.6,18.3,29.71,SSE,161,4.0,7.4,53,0.00,,,-99.99,FreeWX 2.04,2013-02-28 09:08:00,
2013-02-28 04:18:00,33.6,18.3,29.71,SSE,161,2.0,8.7,53,0.00,,,-99.99,FreeWX 2.04,2013-02-28 09:18:00,
2013-02-28 04:28:00,33.6,18.3,29.71,SSE,161,2.0,5.8,53,0.00,,,-99.99,FreeWX 2.04,2013-02-28 09:28:00,
2013-02-28 04:38:00,33.6,18.3,29.74,SSE,160,2.0,6.7,53,0.00,,,-99.99,FreeWX 2.04,2013-02-28 09:38:00,
2013-02-28 04:48:00,33.6,18.3,29.74,SSE,160,3.0,7.4,53,0.00,,,-99.99,FreeWX 2.04,2013-02-28 09:48:00,
2013-02-28 04:58:00,33.6,18.0,29.74,SSE,150,4.0,7.4,52,0.00,,,-99.99,FreeWX 2.04,2013-02-28 09:58:00,
2013-02-28 05:08:00,33.6,18.0,29.74,North,351,3.0,6.3,52,0.00,,,-99.99,FreeWX 2.04,2013-02-28 10:08:00,
2013-02-28 05:18:00,33.4,17.8,29.74,North,351,3.0,6.7,52,0.00,,,-99.99,FreeWX 2.04,2013-02-28 10:18:00,
2013-02-28 05:28:00,33.4,17.8,29.74,North,351,3.0,8.3,52,0.00,,,-99.99,FreeWX 2.04,2013-02-28 10:28:00,
2013-02-28 05:38:00,33.3,17.6,29.74,North,351,3.0,8.7,52,0.00,,,-99.99,FreeWX 2.04,2013-02-28 10:38:00,
2013-02-28 05:48:00,33.3,17.6,29.74,North,351,3.0,8.3,52,0.00,,,-99.99,FreeWX 2.04,2013-02-28 10:48:00,
2013-02-28 05:58:00,33.3,17.6,29.74,North,351,3.0,6.9,52,0.00,,,-99.99,FreeWX 2.04,2013-02-28 10:58:00,
2013-02-28 06:08:00,33.3,17.6,29.74,North,351,4.0,11.0,52,0.00,,,-99.99,FreeWX 2.04,2013-02-28 11:08:00,
2013-02-28 06:18:00,33.3,17.1,29.74,North,351,4.0,7.8,51,0.00,,,-99.99,FreeWX 2.04,2013-02-28 11:18:00,
2013-02-28 06:28:00,33.3,16.7,29.74,North,351,4.0,9.2,50,0.00,,,-99.99,FreeWX 2.04,2013-02-28 11:28:00,
2013-02-28 06:38:00,33.3,16.7,29.74,North,351,4.0,7.8,50,0.00,,,-99.99,FreeWX 2.04,2013-02-28 11:38:00,
2013-02-28 06:48:00,33.3,16.7,29.74,North,351,3.0,6.3,50,0.00,,,-99.99,FreeWX 2.04,2013-02-28 11:48:00,
2013-02-28 06:58:00,33.3,16.2,29.74,North,351,4.0,9.6,49,0.00,,,-99.99,FreeWX 2.04,2013-02-28 11:58:00,
2013-02-28 07:08:00,33.3,15.3,29.74,North,351,4.0,9.6,47,0.00,,,-99.99,FreeWX 2.04,2013-02-28 12:08:00,
2013-02-28 07:18:00,33.4,15.4,29.74,North,351,4.0,9.2,47,0.00,,,-99.99,FreeWX 2.04,2013-02-28 12:18:00,
2013-02-28 07:28:00,33.3,15.8,29.74,North,351,3.0,8.7,48,0.00,,,-99.99,FreeWX 2.04,2013-02-28 12:28:00,
2013-02-28 07:38:00,33.3,15.8,29.74,North,351,3.0,6.9,48,0.00,,,-99.99,FreeWX 2.04,2013-02-28 12:38:00,
2013-02-28 07:48:00,33.3,15.8,29.74,North,352,4.0,9.2,48,0.00,,,-99.99,FreeWX 2.04,2013-02-28 12:48:00,
2013-02-28 07:58:00,33.4,16.3,29.74,North,358,4.0,9.2,49,0.00,,,-99.99,FreeWX 2.04,2013-02-28 12:58:00,
2013-02-28 08:08:00,33.6,16.5,29.76,North,358,4.0,9.6,49,0.00,,,-99.99,FreeWX 2.04,2013-02-28 13:08:00,
2013-02-28 08:18:00,33.6,16.0,29.76,North,10,4.0,10.1,48,0.00,,,-99.99,FreeWX 2.04,2013-02-28 13:18:00,
2013-02-28 08:28:00,33.8,16.2,29.76,ENE,77,4.0,10.5,48,0.00,,,-99.99,FreeWX 2.04,2013-02-28 13:28:00,
2013-02-28 08:38:00,34.0,16.3,29.76,ENE,60,4.0,9.6,48,0.00,,,-99.99,FreeWX 2.04,2013-02-28 13:38:00,
2013-02-28 08:48:00,34.0,15.4,29.76,ENE,61,5.0,10.5,46,0.00,,,-99.99,FreeWX 2.04,2013-02-28 13:48:00,
2013-02-28 08:58:00,34.2,15.6,29.76,NNE,33,4.0,10.1,46,0.00,,,-99.99,FreeWX 2.04,2013-02-28 13:58:00,
2013-02-28 09:08:00,34.2,15.6,29.76,NE,51,4.0,8.7,46,0.00,,,-99.99,FreeWX 2.04,2013-02-28 14:08:00,
2013-02-28 09:18:00,34.2,15.6,29.76,ENE,59,4.0,8.7,46,0.00,,,-99.99,FreeWX 2.04,2013-02-28 14:18:00,
2013-02-28 09:28:00,34.2,15.6,29.76,ENE,76,5.0,12.5,46,0.00,,,-99.99,FreeWX 2.04,2013-02-28 14:28:00,
2013-02-28 09:38:00,34.2,15.6,29.76,ENE,76,3.0,10.1,46,0.00,,,-99.99,FreeWX 2.04,2013-02-28 14:38:00,
2013-02-28 09:48:00,34.2,16.0,29.76,East,99,4.0,11.0,47,0.00,,,-99.99,FreeWX 2.04,2013-02-28 14:48:00,
2013-02-28 09:58:00,34.3,16.7,29.76,NE,52,4.0,11.2,48,0.00,,,-99.99,FreeWX 2.04,2013-02-28 14:58:00,
2013-02-28 10:08:00,34.5,16.9,29.76,ENE,68,4.0,7.4,48,0.00,,,-99.99,FreeWX 2.04,2013-02-28 15:08:00,
2013-02-28 10:18:00,34.9,17.6,29.79,NE,48,5.0,9.6,49,0.00,,,-99.99,FreeWX 2.04,2013-02-28 15:18:00,
2013-02-28 10:28:00,35.1,17.8,29.79,NE,46,4.0,10.1,49,0.00,,,-99.99,FreeWX 2.04,2013-02-28 15:28:00,
2013-02-28 10:38:00,35.2,18.0,29.76,NE,37,5.0,10.1,49,0.00,,,-99.99,FreeWX 2.04,2013-02-28 15:38:00,
2013-02-28 10:48:00,35.1,17.4,29.79,ENE,58,5.0,9.2,48,0.00,,,-99.99,FreeWX 2.04,2013-02-28 15:48:00,
2013-02-28 10:58:00,35.1,17.4,29.79,NE,54,4.0,12.1,48,0.00,,,-99.99,FreeWX 2.04,2013-02-28 15:58:00,
2013-02-28 11:08:00,35.1,17.4,29.79,ENE,66,4.0,9.2,48,0.00,,,-99.99,FreeWX 2.04,2013-02-28 16:08:00,
2013-02-28 11:18:00,34.9,16.7,29.79,ENE,74,5.0,13.9,47,0.00,,,-99.99,FreeWX 2.04,2013-02-28 16:18:00,
2013-02-28 11:28:00,34.9,16.7,29.79,East,80,4.0,10.5,47,0.00,,,-99.99,FreeWX 2.04,2013-02-28 16:28:00,
2013-02-28 11:38:00,35.1,17.4,29.79,ESE,108,4.0,9.6,48,0.00,,,-99.99,FreeWX 2.04,2013-02-28 16:38:00,
2013-02-28 11:48:00,35.1,16.9,29.79,NE,53,5.0,13.9,47,0.04,,,-99.99,FreeWX 2.04,2013-02-28 16:48:00,
2013-02-28 11:58:00,34.9,16.7,29.79,ENE,74,4.0,9.2,47,0.04,,,-99.99,FreeWX 2.04,2013-02-28 16:58:00,
2013-02-28 12:08:00,35.1,17.4,29.79,ESE,110,5.0,12.1,48,0.04,,,-99.99,FreeWX 2.04,2013-02-28 17:08:00,
2013-02-28 12:18:00,35.1,17.4,29.79,ENE,77,5.0,15.9,48,0.04,,,-99.99,FreeWX 2.04,2013-02-28 17:18:00,
2013-02-28 12:28:00,34.9,17.2,29.79,East,99,4.0,11.0,48,0.04,,,-99.99,FreeWX 2.04,2013-02-28 17:28:00,
2013-02-28 12:38:00,35.1,17.8,29.79,East,81,5.0,11.6,49,0.04,,,-99.99,FreeWX 2.04,2013-02-28 17:38:00,
2013-02-28 12:48:00,35.1,17.8,29.79,ESE,104,4.0,14.8,49,0.00,,,-99.99,FreeWX 2.04,2013-02-28 17:48:00,
2013-02-28 12:58:00,35.1,17.8,29.79,East,99,4.0,10.5,49,0.00,,,-99.99,FreeWX 2.04,2013-02-28 17:58:00,
2013-02-28 13:08:00,35.1,17.8,29.79,East,92,5.0,10.1,49,0.00,,,-99.99,FreeWX 2.04,2013-02-28 18:08:00,
2013-02-28 13:18:00,35.2,18.5,29.79,ENE,62,4.0,8.7,50,0.00,,,-99.99,FreeWX 2.04,2013-02-28 18:18:00,
2013-02-28 13:29:00,35.1,18.3,29.79,East,95,4.0,7.4,50,0.00,,,-99.99,FreeWX 2.04,2013-02-28 18:29:00,
2013-02-28 13:39:00,35.1,18.3,29.79,East,79,4.0,10.1,50,0.00,,,-99.99,FreeWX 2.04,2013-02-28 18:39:00,
2013-02-28 13:49:00,35.1,18.3,29.79,ENE,63,4.0,7.8,50,0.00,,,-99.99,FreeWX 2.04,2013-02-28 18:49:00,
2013-02-28 13:59:00,35.2,18.9,29.79,NE,49,3.0,6.7,51,0.00,,,-99.99,FreeWX 2.04,2013-02-28 18:59:00,
2013-02-28 14:09:00,35.4,19.6,29.79,ENE,59,3.0,9.2,52,0.00,,,-99.99,FreeWX 2.04,2013-02-28 19:09:00,
2013-02-28 14:19:00,35.4,19.9,29.79,ENE,77,3.0,8.3,53,0.00,,,-99.99,FreeWX 2.04,2013-02-28 19:19:00,
2013-02-28 14:29:00,35.4,20.5,29.79,ENE,75,4.0,7.4,54,0.00,,,-99.99,FreeWX 2.04,2013-02-28 19:29:00,
2013-02-28 14:39:00,35.4,20.5,29.79,ENE,60,4.0,11.0,54,0.00,,,-99.99,FreeWX 2.04,2013-02-28 19:39:00,
2013-02-28 14:49:00,35.4,20.8,29.82,NNE,20,3.0,10.5,55,0.00,,,-99.99,FreeWX 2.04,2013-02-28 19:49:00,
2013-02-28 14:59:00,35.4,20.8,29.82,East,90,4.0,9.2,55,0.00,,,-99.99,FreeWX 2.04,2013-02-28 19:59:00,
2013-02-28 15:09:00,35.6,21.6,29.82,NE,43,4.0,7.8,56,0.00,,,-99.99,FreeWX 2.04,2013-02-28 20:09:00,
2013-02-28 15:19:00,35.6,21.6,29.82,NE,53,3.0,7.4,56,0.00,,,-99.99,FreeWX 2.04,2013-02-28 20:19:00,
2013-02-28 15:29:00,35.6,21.0,29.82,NNE,29,2.0,6.7,55,0.00,,,-99.99,FreeWX 2.04,2013-02-28 20:29:00,
2013-02-28 15:39:00,35.6,21.0,29.82,ENE,65,3.0,8.3,55,0.00,,,-99.99,FreeWX 2.04,2013-02-28 20:39:00,
2013-02-28 15:49:00,35.6,21.0,29.82,NE,46,3.0,6.9,55,0.00,,,-99.99,FreeWX 2.04,2013-02-28 20:49:00,
2013-02-28 15:59:00,35.6,21.0,29.82,NE,54,4.0,11.0,55,0.00,,,-99.99,FreeWX 2.04,2013-02-28 20:59:00,
2013-02-28 16:09:00,35.4,20.5,29.82,ENE,70,4.0,10.1,54,0.00,,,-99.99,FreeWX 2.04,2013-02-28 21:09:00,
2013-02-28 16:19:00,35.4,20.5,29.82,NE,52,5.0,10.1,54,0.00,,,-99.99,FreeWX 2.04,2013-02-28 21:19:00,
2013-02-28 16:29:00,35.4,20.5,29.82,ENE,61,4.0,7.8,54,0.00,,,-99.99,FreeWX 2.04,2013-02-28 21:29:00,
2013-02-28 16:39:00,35.4,20.8,29.82,ENE,66,4.0,8.7,55,0.00,,,-99.99,FreeWX 2.04,2013-02-28 21:39:00,
2013-02-28 16:49:00,35.4,20.8,29.82,NNE,23,3.0,7.8,55,0.00,,,-99.99,FreeWX 2.04,2013-02-28 21:49:00,
2013-02-28 16:59:00,35.2,21.2,29.82,NE,54,4.0,8.3,56,0.00,,,-99.99,FreeWX 2.04,2013-02-28 21:59:00,
2013-02-28 17:09:00,35.2,21.2,29.85,ENE,74,3.0,8.7,56,0.00,,,-99.99,FreeWX 2.04,2013-02-28 22:09:00,
2013-02-28 17:19:00,35.2,21.6,29.85,NE,53,4.0,9.6,57,0.00,,,-99.99,FreeWX 2.04,2013-02-28 22:19:00,
2013-02-28 17:29:00,35.2,21.9,29.85,ENE,74,4.0,9.2,58,0.00,,,-99.99,FreeWX 2.04,2013-02-28 22:29:00,
2013-02-28 17:39:00,35.1,21.7,29.85,ENE,68,3.0,8.3,58,0.00,,,-99.99,FreeWX 2.04,2013-02-28 22:39:00,
2013-02-28 17:49:00,35.1,21.7,29.88,East,89,3.0,7.8,58,0.00,,,-99.99,FreeWX 2.04,2013-02-28 22:49:00,
2013-02-28 17:59:00,35.1,22.3,29.88,ENE,75,2.0,9.2,59,0.00,,,-99.99,FreeWX 2.04,2013-02-28 22:59:00,
2013-02-28 18:09:00,34.9,22.1,29.88,East,80,3.0,5.4,59,0.00,,,-99.99,FreeWX 2.04,2013-02-28 23:09:00,
2013-02-28 18:19:00,34.9,22.5,29.88,East,92,3.0,6.3,60,0.00,,,-99.99,FreeWX 2.04,2013-02-28 23:19:00,
2013-02-28 18:29:00,34.9,22.5,29.88,ENE,61,3.0,6.3,60,0.00,,,-99.99,FreeWX 2.04,2013-02-28 23:29:00,
2013-02-28 18:39:00,34.7,22.3,29.88,East,86,1.0,4.5,60,0.00,,,-99.99,FreeWX 2.04,2013-02-28 23:39:00,
2013-02-28 18:49:00,34.7,22.6,29.88,North,-999,0.0,4.5,61,0.00,,,-99.99,FreeWX 2.04,2013-02-28 23:49:00,
2013-02-28 18:59:00,34.9,22.8,29.88,East,87,2.0,5.4,61,0.00,,,-99.99,FreeWX 2.04,2013-02-28 23:59:00,
2013-02-28 19:09:00,34.9,23.2,29.88,East,88,3.0,6.9,62,0.00,,,-99.99,FreeWX 2.04,2013-03-01 00:09:00,
2013-02-28 19:19:00,34.9,23.2,29.91,East,82,2.0,6.9,62,0.00,,,-99.99,FreeWX 2.04,2013-03-01 00:19:00,
2013-02-28 19:29:00,34.9,23.2,29.91,ENE,67,2.0,5.8,62,0.00,,,-99.99,FreeWX 2.04,2013-03-01 00:29:00,
2013-02-28 19:39:00,34.9,23.2,29.91,NE,49,1.0,5.8,62,0.00,,,-99.99,FreeWX 2.04,2013-03-01 00:39:00,
2013-02-28 19:49:00,34.7,23.0,29.91,East,88,1.0,5.4,62,0.00,,,-99.99,FreeWX 2.04,2013-03-01 00:49:00,
2013-02-28 19:59:00,34.9,23.5,29.91,NE,54,2.0,5.4,63,0.00,,,-99.99,FreeWX 2.04,2013-03-01 00:59:00,
2013-02-28 20:09:00,34.9,23.5,29.91,ENE,74,1.0,4.9,63,0.00,,,-99.99,FreeWX 2.04,2013-03-01 01:09:00,
2013-02-28 20:19:00,34.9,23.9,29.91,ENE,65,2.0,7.8,64,0.00,,,-99.99,FreeWX 2.04,2013-03-01 01:19:00,
2013-02-28 20:29:00,35.1,24.1,29.91,ENE,65,1.0,4.9,64,0.00,,,-99.99,FreeWX 2.04,2013-03-01 01:29:00,
2013-02-28 20:39:00,35.1,24.1,29.91,ENE,74,1.0,4.9,64,0.04,,,-99.99,FreeWX 2.04,2013-03-01 01:39:00,
2013-02-28 20:49:00,34.9,24.3,29.91,ENE,71,2.0,5.8,65,0.04,,,-99.99,FreeWX 2.04,2013-03-01 01:49:00,
2013-02-28 20:59:00,35.1,24.8,29.91,ENE,60,2.0,5.4,66,0.04,,,-99.99,FreeWX 2.04,2013-03-01 01:59:00,
2013-02-28 21:09:00,34.9,24.6,29.91,North,-999,0.0,4.5,66,0.04,,,-99.99,FreeWX 2.04,2013-03-01 02:09:00,
2013-02-28 21:19:00,34.9,24.6,29.91,NE,48,1.0,4.9,66,0.04,,,-99.99,FreeWX 2.04,2013-03-01 02:19:00,
2013-02-28 21:29:00,34.9,24.6,29.91,North,-999,0.0,4.9,66,0.04,,,-99.99,FreeWX 2.04,2013-03-01 02:29:00,
2013-02-28 21:39:00,34.9,24.6,29.91,ENE,73,1.0,4.5,66,0.00,,,-99.99,FreeWX 2.04,2013-03-01 02:39:00,
2013-02-28 21:49:00,34.9,24.6,29.91,ESE,102,1.0,4.9,66,0.00,,,-99.99,FreeWX 2.04,2013-03-01 02:49:00,
2013-02-28 21:59:00,34.9,24.6,29.91,North,-999,0.0,4.0,66,0.00,,,-99.99,FreeWX 2.04,2013-03-01 02:59:00,
2013-02-28 22:09:00,34.9,24.6,29.91,North,-999,0.0,4.0,66,0.00,,,-99.99,FreeWX 2.04,2013-03-01 03:09:00,
2013-02-28 22:19:00,34.9,25.0,29.91,North,-999,0.0,2.7,67,0.00,,,-99.99,FreeWX 2.04,2013-03-01 03:19:00,
2013-02-28 22:29:00,34.9,25.0,29.91,North,-999,0.0,0.0,67,0.00,,,-99.99,FreeWX 2.04,2013-03-01 03:29:00,
2013-02-28 22:39:00,34.9,25.0,29.91,North,-999,0.0,0.0,67,0.00,,,-99.99,FreeWX 2.04,2013-03-01 03:39:00,
2013-02-28 22:49:00,34.9,25.0,29.91,North,-999,0.0,3.1,67,0.00,,,-99.99,FreeWX 2.04,2013-03-01 03:49:00,
2013-02-28 22:59:00,34.9,25.0,29.91,North,-999,0.0,3.1,67,0.00,,,-99.99,FreeWX 2.04,2013-03-01 03:59:00,
2013-02-28 23:09:00,34.9,25.0,29.91,North,-999,0.0,3.6,67,0.00,,,-99.99,FreeWX 2.04,2013-03-01 04:09:00,
2013-02-28 23:19:00,34.9,25.0,29.91,North,-999,0.0,3.6,67,0.00,,,-99.99,FreeWX 2.04,2013-03-01 04:19:00,
2013-02-28 23:29:00,34.9,25.3,29.91,North,-999,0.0,0.0,68,0.00,,,-99.99,FreeWX 2.04,2013-03-01 04:29:00,
2013-02-28 23:39:00,34.9,25.3,29.91,North,-999,0.0,0.0,68,0.00,,,-99.99,FreeWX 2.04,2013-03-01 04:39:00,
2013-02-28 23:49:00,34.9,25.3,29.91,North,-999,0.0,3.1,68,0.00,,,-99.99,FreeWX 2.04,2013-03-01 04:49:00,
2013-02-28 23:59:00,35.1,25.5,29.91,North,-999,0.0,0.0,68,0.00,,,-99.99,FreeWX 2.04,2013-03-01 04:59:00,